createdAt,value
2023-10-10T00:00:51.318Z,85.57
2023-10-10T00:01:51.327Z,85.30
2023-10-10T00:02:51.408Z,85.20
2023-10-10T00:03:51.565Z,85.24
2023-10-10T00:04:51.614Z,85.60
2023-10-10T00:05:51.626Z,85.72
2023-10-10T00:06:51.708Z,85.72
2023-10-10T00:07:51.838Z,85.79
2023-10-10T00:08:51.909Z,85.85
2023-10-10T00:09:51.992Z,85.97
2023-10-10T00:10:52.475Z,85.90
2023-10-10T00:11:52.134Z,85.86
2023-10-10T00:12:52.256Z,85.85
2023-10-10T00:13:52.322Z,85.87
2023-10-10T00:14:52.388Z,85.83
2023-10-10T00:15:52.688Z,85.91
2023-10-10T00:16:52.570Z,86.14
2023-10-10T00:17:52.679Z,85.97
2023-10-10T00:18:52.666Z,86.08
2023-10-10T00:19:52.780Z,86.18
2023-10-10T00:20:52.832Z,86.16
2023-10-10T00:21:52.916Z,86.31
2023-10-10T00:22:53.085Z,86.36
2023-10-10T00:23:53.084Z,86.45
2023-10-10T00:24:53.166Z,86.15
2023-10-10T00:25:53.281Z,85.99
2023-10-10T00:26:53.333Z,86.08
2023-10-10T00:27:53.418Z,85.84
2023-10-10T00:28:53.498Z,85.76
2023-10-10T00:29:53.606Z,85.71
2023-10-10T00:30:53.662Z,85.80
2023-10-10T00:31:54.554Z,85.66
2023-10-10T00:32:53.833Z,85.76
2023-10-10T00:33:53.942Z,85.74
2023-10-10T00:34:54.006Z,85.86
2023-10-10T00:35:54.032Z,85.88
2023-10-10T00:36:54.085Z,86.20
2023-10-10T00:37:54.210Z,86.08
2023-10-10T00:38:54.249Z,86.11
2023-10-10T00:39:54.312Z,86.30
2023-10-10T00:40:54.382Z,86.29
2023-10-10T00:41:54.468Z,86.10
2023-10-10T00:42:54.512Z,85.93
2023-10-10T00:43:54.646Z,86.14
2023-10-10T00:44:54.788Z,85.86
2023-10-10T00:45:54.753Z,85.90
2023-10-10T00:46:54.898Z,86.20
2023-10-10T00:47:54.942Z,86.23
2023-10-10T00:48:54.947Z,86.16
2023-10-10T00:49:55.054Z,86.11
2023-10-10T00:50:55.096Z,86.44
2023-10-10T00:51:55.192Z,86.47
2023-10-10T00:52:55.293Z,86.59
2023-10-10T00:53:55.302Z,86.80
2023-10-10T00:54:55.391Z,86.79
2023-10-10T00:55:55.503Z,86.63
2023-10-10T00:56:55.623Z,86.56
2023-10-10T00:57:55.652Z,86.49
2023-10-10T00:58:55.746Z,86.37
2023-10-10T00:59:56.106Z,86.19
2023-10-10T01:00:55.979Z,86.01
2023-10-10T01:01:56.007Z,86.16
2023-10-10T01:02:56.229Z,85.94
2023-10-10T01:03:56.248Z,85.76
2023-10-10T01:04:56.264Z,85.88
2023-10-10T01:05:56.440Z,85.72
2023-10-10T01:06:56.376Z,85.50
2023-10-10T01:07:56.485Z,85.38
2023-10-10T01:08:56.552Z,85.45
2023-10-10T01:09:56.688Z,85.37
2023-10-10T01:10:56.744Z,85.19
2023-10-10T01:11:56.830Z,84.85
2023-10-10T01:12:56.931Z,84.70
2023-10-10T01:13:56.985Z,84.62
2023-10-10T01:14:57.056Z,84.72
2023-10-10T01:15:57.146Z,84.93
2023-10-10T01:16:57.294Z,84.95
2023-10-10T01:17:57.425Z,84.95
2023-10-10T01:18:57.397Z,84.66
2023-10-10T01:19:58.289Z,84.72
2023-10-10T01:20:57.563Z,84.79
2023-10-10T01:21:57.681Z,84.68
2023-10-10T01:22:58.028Z,84.89
2023-10-10T01:23:57.824Z,85.11
2023-10-10T01:24:57.917Z,85.21
2023-10-10T01:25:58.053Z,85.15
2023-10-10T01:26:58.116Z,84.99
2023-10-10T01:27:58.166Z,85.22
2023-10-10T01:28:58.284Z,85.58
2023-10-10T01:29:58.389Z,85.67
2023-10-10T01:30:58.940Z,85.63
2023-10-10T01:31:58.562Z,85.78
2023-10-10T01:32:58.568Z,85.83
2023-10-10T01:33:58.654Z,86.00
2023-10-10T01:34:58.762Z,86.10
2023-10-10T01:35:58.804Z,86.10
2023-10-10T01:36:58.881Z,86.16
2023-10-10T01:37:59.009Z,86.12
2023-10-10T01:38:59.057Z,85.86
2023-10-10T01:39:59.164Z,85.84
2023-10-10T01:40:59.259Z,85.75
2023-10-10T01:41:59.276Z,85.79
2023-10-10T01:42:59.360Z,85.67
2023-10-10T01:43:59.539Z,86.04
2023-10-10T01:44:59.607Z,85.83
2023-10-10T01:45:59.594Z,86.16
2023-10-10T01:47:00.504Z,86.23
2023-10-10T01:47:59.782Z,86.37
2023-10-10T01:48:59.854Z,86.52
2023-10-10T01:50:00.161Z,86.73
2023-10-10T01:51:00.047Z,86.78
2023-10-10T01:52:00.861Z,86.75
2023-10-10T01:53:00.164Z,86.83
2023-10-10T01:54:00.248Z,86.80
2023-10-10T01:55:00.364Z,86.80
2023-10-10T01:56:00.425Z,86.91
2023-10-10T01:57:00.443Z,86.75
2023-10-10T01:58:00.528Z,86.80
2023-10-10T01:59:00.701Z,86.81
2023-10-10T02:00:00.734Z,86.80
2023-10-10T02:01:00.875Z,86.96
2023-10-10T02:02:00.983Z,86.92
2023-10-10T02:03:01.049Z,86.91
2023-10-10T02:04:01.029Z,86.93
2023-10-10T02:05:01.400Z,86.93
2023-10-10T02:06:01.263Z,87.06
2023-10-10T02:07:01.237Z,86.89
2023-10-10T02:08:01.414Z,86.74
2023-10-10T02:09:01.378Z,86.78
2023-10-10T02:10:01.557Z,86.90
2023-10-10T02:11:01.555Z,86.96
2023-10-10T02:12:01.618Z,87.03
2023-10-10T02:13:01.728Z,86.90
2023-10-10T02:14:01.795Z,87.03
2023-10-10T02:15:01.857Z,87.24
2023-10-10T02:16:01.939Z,87.18
2023-10-10T02:17:02.056Z,86.89
2023-10-10T02:18:02.156Z,86.88
2023-10-10T02:19:02.184Z,86.83
2023-10-10T02:20:02.329Z,86.69
2023-10-10T02:21:02.346Z,86.62
2023-10-10T02:22:02.443Z,86.76
2023-10-10T02:23:02.588Z,86.65
2023-10-10T02:24:02.591Z,86.80
2023-10-10T02:25:03.557Z,86.95
2023-10-10T02:26:02.788Z,86.98
2023-10-10T02:27:02.829Z,87.08
2023-10-10T02:28:02.916Z,86.85
2023-10-10T02:29:02.999Z,86.94
2023-10-10T02:30:03.081Z,86.94
2023-10-10T02:31:03.142Z,86.98
2023-10-10T02:32:03.822Z,86.86
2023-10-10T02:33:03.311Z,86.63
2023-10-10T02:34:03.462Z,86.70
2023-10-10T02:35:03.451Z,86.99
2023-10-10T02:36:03.517Z,87.15
2023-10-10T02:37:03.609Z,87.37
2023-10-10T02:38:03.745Z,87.67
2023-10-10T02:39:03.761Z,87.64
2023-10-10T02:40:03.863Z,87.62
2023-10-10T02:41:03.989Z,87.64
2023-10-10T02:42:04.042Z,87.84
2023-10-10T02:43:04.119Z,87.89
2023-10-10T02:44:05.198Z,87.91
2023-10-10T02:45:04.313Z,88.12
2023-10-10T02:46:04.405Z,88.04
2023-10-10T02:47:04.464Z,88.10
2023-10-10T02:48:04.552Z,87.92
2023-10-10T02:49:04.604Z,88.11
2023-10-10T02:50:04.725Z,88.27
2023-10-10T02:51:04.869Z,88.22
2023-10-10T02:52:04.858Z,88.20
2023-10-10T02:53:04.979Z,88.18
2023-10-10T02:54:05.041Z,88.09
2023-10-10T02:55:06.064Z,87.90
2023-10-10T02:56:05.216Z,88.07
2023-10-10T02:57:05.265Z,88.04
2023-10-10T02:58:05.363Z,88.18
2023-10-10T02:59:05.453Z,88.11
2023-10-10T03:00:05.542Z,88.16
2023-10-10T03:01:05.612Z,88.36
2023-10-10T03:02:05.750Z,88.18
2023-10-10T03:03:05.953Z,88.08
2023-10-10T03:04:05.954Z,87.92
2023-10-10T03:05:06.032Z,87.92
2023-10-10T03:06:06.025Z,88.16
2023-10-10T03:07:06.070Z,88.21
2023-10-10T03:08:06.206Z,88.33
2023-10-10T03:09:06.272Z,88.43
2023-10-10T03:10:06.377Z,88.55
2023-10-10T03:11:06.471Z,88.72
2023-10-10T03:12:07.286Z,88.69
2023-10-10T03:13:06.638Z,88.70
2023-10-10T03:14:06.732Z,88.77
2023-10-10T03:15:06.826Z,88.63
2023-10-10T03:16:06.932Z,88.52
2023-10-10T03:17:07.049Z,88.67
2023-10-10T03:18:07.125Z,88.85
2023-10-10T03:19:07.112Z,88.81
2023-10-10T03:20:07.209Z,88.75
2023-10-10T03:21:07.212Z,88.85
2023-10-10T03:22:07.331Z,88.81
2023-10-10T03:23:07.401Z,88.90
2023-10-10T03:24:07.463Z,88.96
2023-10-10T03:25:07.544Z,88.99
2023-10-10T03:26:07.704Z,89.19
2023-10-10T03:27:07.719Z,89.18
2023-10-10T03:28:07.800Z,89.22
2023-10-10T03:29:07.901Z,89.18
2023-10-10T03:30:07.981Z,89.29
2023-10-10T03:31:08.077Z,89.32
2023-10-10T03:32:08.208Z,89.32
2023-10-10T03:33:08.203Z,89.46
2023-10-10T03:34:08.268Z,89.47
2023-10-10T03:35:08.380Z,89.44
2023-10-10T03:36:08.431Z,89.50
2023-10-10T03:37:08.514Z,89.66
2023-10-10T03:38:08.620Z,89.56
2023-10-10T03:39:08.681Z,89.63
2023-10-10T03:40:08.774Z,89.68
2023-10-10T03:41:08.923Z,89.68
2023-10-10T03:42:08.946Z,89.76
2023-10-10T03:43:09.002Z,89.72
2023-10-10T03:44:09.095Z,89.79
2023-10-10T03:45:09.167Z,90.01
2023-10-10T03:46:09.281Z,90.05
2023-10-10T03:47:09.363Z,89.91
2023-10-10T03:48:09.498Z,89.77
2023-10-10T03:49:09.533Z,89.68
2023-10-10T03:50:10.262Z,89.63
2023-10-10T03:51:09.671Z,89.69
2023-10-10T03:52:09.774Z,89.66
2023-10-10T03:53:09.955Z,89.49
2023-10-10T03:54:09.951Z,89.47
2023-10-10T03:55:10.013Z,89.43
2023-10-10T03:56:10.148Z,89.42
2023-10-10T03:57:10.172Z,89.47
2023-10-10T03:58:10.227Z,89.43
2023-10-10T03:59:10.427Z,89.36
2023-10-10T04:00:10.617Z,89.44
2023-10-10T04:01:10.577Z,89.58
2023-10-10T04:02:12.841Z,89.42
2023-10-10T04:03:10.686Z,89.47
2023-10-10T04:04:10.767Z,89.46
2023-10-10T04:05:24.101Z,89.39
2023-10-10T04:06:10.908Z,89.53
2023-10-10T04:07:10.964Z,89.61
2023-10-10T04:08:11.078Z,89.62
2023-10-10T04:09:11.160Z,89.63
2023-10-10T04:10:12.083Z,89.57
2023-10-10T04:11:11.307Z,89.31
2023-10-10T04:12:11.425Z,89.24
2023-10-10T04:13:11.474Z,89.29
2023-10-10T04:14:11.645Z,89.13
2023-10-10T04:15:11.689Z,89.06
2023-10-10T04:16:11.746Z,89.01
2023-10-10T04:17:11.830Z,88.94
2023-10-10T04:18:11.897Z,88.84
2023-10-10T04:19:11.975Z,88.82
2023-10-10T04:20:12.108Z,88.83
2023-10-10T04:21:12.158Z,88.65
2023-10-10T04:22:12.245Z,88.66
2023-10-10T04:23:12.352Z,88.62
2023-10-10T04:24:12.361Z,88.57
2023-10-10T04:25:12.439Z,88.53
2023-10-10T04:26:12.573Z,88.52
2023-10-10T04:27:12.621Z,88.52
2023-10-10T04:28:12.689Z,88.47
2023-10-10T04:29:12.793Z,88.37
2023-10-10T04:30:12.859Z,88.37
2023-10-10T04:31:12.970Z,88.38
2023-10-10T04:32:13.111Z,88.42
2023-10-10T04:33:13.164Z,88.40
2023-10-10T04:34:13.297Z,88.49
2023-10-10T04:35:13.363Z,88.48
2023-10-10T04:36:13.327Z,88.44
2023-10-10T04:37:13.399Z,88.47
2023-10-10T04:38:13.514Z,88.47
2023-10-10T04:39:13.537Z,88.54
2023-10-10T04:40:13.637Z,88.43
2023-10-10T04:41:13.757Z,88.38
2023-10-10T04:42:13.770Z,88.42
2023-10-10T04:43:13.864Z,88.46
2023-10-10T04:44:14.088Z,88.45
2023-10-10T04:45:14.095Z,88.35
2023-10-10T04:46:14.124Z,88.36
2023-10-10T04:47:14.210Z,88.41
2023-10-10T04:48:14.261Z,88.45
2023-10-10T04:49:15.101Z,88.41
2023-10-10T04:50:14.460Z,88.40
2023-10-10T04:51:14.543Z,88.40
2023-10-10T04:52:14.589Z,88.46
2023-10-10T04:53:14.708Z,88.47
2023-10-10T04:54:15.008Z,88.46
2023-10-10T04:55:14.821Z,88.48
2023-10-10T04:56:14.955Z,88.56
2023-10-10T04:57:15.003Z,88.56
2023-10-10T04:58:15.083Z,88.70
2023-10-10T04:59:15.245Z,88.97
2023-10-10T05:00:15.225Z,89.03
2023-10-10T05:01:15.342Z,88.98
2023-10-10T05:02:15.420Z,88.88
2023-10-10T05:03:15.593Z,88.97
2023-10-10T05:04:15.841Z,89.10
2023-10-10T05:05:16.266Z,89.02
2023-10-10T05:06:15.710Z,89.07
2023-10-10T05:07:15.806Z,89.09
2023-10-10T05:08:15.919Z,88.96
2023-10-10T05:09:15.989Z,89.12
2023-10-10T05:10:16.038Z,89.27
2023-10-10T05:11:16.158Z,89.24
2023-10-10T05:12:16.191Z,89.22
2023-10-10T05:13:16.270Z,89.35
2023-10-10T05:14:16.529Z,89.26
2023-10-10T05:15:16.451Z,89.18
2023-10-10T05:16:17.133Z,89.07
2023-10-10T05:17:16.661Z,89.11
2023-10-10T05:18:16.726Z,89.01
2023-10-10T05:19:16.778Z,89.19
2023-10-10T05:20:16.931Z,89.24
2023-10-10T05:21:16.948Z,89.11
2023-10-10T05:22:17.028Z,89.01
2023-10-10T05:23:17.187Z,89.06
2023-10-10T05:24:17.360Z,89.15
2023-10-10T05:25:17.271Z,88.99
2023-10-10T05:26:17.409Z,88.96
2023-10-10T05:27:17.454Z,88.85
2023-10-10T05:28:17.540Z,89.01
2023-10-10T05:29:17.645Z,89.03
2023-10-10T05:30:17.712Z,89.10
2023-10-10T05:31:17.815Z,89.03
2023-10-10T05:32:17.902Z,88.99
2023-10-10T05:33:17.985Z,89.07
2023-10-10T05:34:18.009Z,89.06
2023-10-10T05:35:18.122Z,89.00
2023-10-10T05:36:18.153Z,88.95
2023-10-10T05:37:18.242Z,88.94
2023-10-10T05:38:18.463Z,88.97
2023-10-10T05:39:18.399Z,88.90
2023-10-10T05:40:18.466Z,88.97
2023-10-10T05:41:18.575Z,89.11
2023-10-10T05:42:18.646Z,89.23
2023-10-10T05:43:18.716Z,89.21
2023-10-10T05:44:19.071Z,89.12
2023-10-10T05:45:18.887Z,89.07
2023-10-10T05:46:19.061Z,89.06
2023-10-10T05:47:19.116Z,89.06
2023-10-10T05:48:19.157Z,88.84
2023-10-10T05:49:19.195Z,88.72
2023-10-10T05:50:19.352Z,88.76
2023-10-10T05:51:19.374Z,88.74
2023-10-10T05:52:19.457Z,88.59
2023-10-10T05:53:19.600Z,88.50
2023-10-10T05:54:19.633Z,88.73
2023-10-10T05:55:19.759Z,88.68
2023-10-10T05:56:19.871Z,88.55
2023-10-10T05:57:19.904Z,88.52
2023-10-10T05:58:19.972Z,88.58
2023-10-10T05:59:20.072Z,88.68
2023-10-10T06:00:20.731Z,88.58
2023-10-10T06:01:20.280Z,88.54
2023-10-10T06:02:20.368Z,88.53
2023-10-10T06:03:20.779Z,88.51
2023-10-10T06:04:20.494Z,88.28
2023-10-10T06:05:20.612Z,88.21
2023-10-10T06:06:20.607Z,88.26
2023-10-10T06:07:20.707Z,88.21
2023-10-10T06:08:20.835Z,88.12
2023-10-10T06:09:20.823Z,88.20
2023-10-10T06:10:22.629Z,88.12
2023-10-10T06:11:21.079Z,88.21
2023-10-10T06:12:21.105Z,88.19
2023-10-10T06:13:21.156Z,88.32
2023-10-10T06:14:21.274Z,88.20
2023-10-10T06:15:21.335Z,88.20
2023-10-10T06:16:21.430Z,88.29
2023-10-10T06:17:21.533Z,88.12
2023-10-10T06:18:21.672Z,88.08
2023-10-10T06:19:21.650Z,88.14
2023-10-10T06:20:21.711Z,87.97
2023-10-10T06:21:21.837Z,88.08
2023-10-10T06:22:21.868Z,87.93
2023-10-10T06:23:22.027Z,88.06
2023-10-10T06:24:22.057Z,88.16
2023-10-10T06:25:22.147Z,87.95
2023-10-10T06:26:22.320Z,88.01
2023-10-10T06:27:22.428Z,87.95
2023-10-10T06:28:22.398Z,87.90
2023-10-10T06:29:22.512Z,87.59
2023-10-10T06:30:22.563Z,87.76
2023-10-10T06:31:22.991Z,87.84
2023-10-10T06:32:22.783Z,87.90
2023-10-10T06:33:22.828Z,87.88
2023-10-10T06:34:22.896Z,87.97
2023-10-10T06:35:23.012Z,88.04
2023-10-10T06:36:23.505Z,87.99
2023-10-10T06:37:23.119Z,88.05
2023-10-10T06:38:23.206Z,87.93
2023-10-10T06:39:23.222Z,87.79
2023-10-10T06:40:23.566Z,87.73
2023-10-10T06:41:23.429Z,87.96
2023-10-10T06:42:23.663Z,87.98
2023-10-10T06:43:23.565Z,88.03
2023-10-10T06:44:23.684Z,87.94
2023-10-10T06:45:25.429Z,87.74
2023-10-10T06:46:23.832Z,87.51
2023-10-10T06:47:23.937Z,87.37
2023-10-10T06:48:24.070Z,87.34
2023-10-10T06:49:24.022Z,87.46
2023-10-10T06:50:24.205Z,87.41
2023-10-10T06:51:24.275Z,87.57
2023-10-10T06:52:24.299Z,87.34
2023-10-10T06:53:24.450Z,87.50
2023-10-10T06:54:24.477Z,87.69
2023-10-10T06:55:24.643Z,87.92
2023-10-10T06:56:24.726Z,87.96
2023-10-10T06:57:24.726Z,88.14
2023-10-10T06:58:24.784Z,88.37
2023-10-10T06:59:24.917Z,88.50
2023-10-10T07:00:24.959Z,88.43
2023-10-10T07:01:25.084Z,88.27
2023-10-10T07:02:25.120Z,88.48
2023-10-10T07:03:25.213Z,88.65
2023-10-10T07:04:25.257Z,88.95
2023-10-10T07:05:25.333Z,88.84
2023-10-10T07:06:25.906Z,88.60
2023-10-10T07:07:25.472Z,88.79
2023-10-10T07:08:25.546Z,88.97
2023-10-10T07:09:25.644Z,88.60
2023-10-10T07:10:25.644Z,88.61
2023-10-10T07:11:25.754Z,88.65
2023-10-10T07:12:25.848Z,88.58
2023-10-10T07:13:25.916Z,88.34
2023-10-10T07:14:26.953Z,88.68
2023-10-10T07:15:26.154Z,88.80
2023-10-10T07:16:27.777Z,88.91
2023-10-10T07:17:35.484Z,88.52
2023-10-10T07:18:26.407Z,88.35
2023-10-10T07:19:26.359Z,88.36
2023-10-10T07:20:27.216Z,88.60
2023-10-10T07:21:26.531Z,88.57
2023-10-10T07:22:26.638Z,88.46
2023-10-10T07:23:26.713Z,88.28
2023-10-10T07:24:26.735Z,88.32
2023-10-10T07:25:26.869Z,88.33
2023-10-10T07:26:26.986Z,88.31
2023-10-10T07:27:27.377Z,88.07
2023-10-10T07:28:27.137Z,87.94
2023-10-10T07:29:27.290Z,87.92
2023-10-10T07:30:27.269Z,87.69
2023-10-10T07:31:27.409Z,87.60
2023-10-10T07:32:27.582Z,87.68
2023-10-10T07:33:27.630Z,87.64
2023-10-10T07:34:27.590Z,87.73
2023-10-10T07:35:27.709Z,87.75
2023-10-10T07:36:27.886Z,87.69
2023-10-10T07:37:27.879Z,87.40
2023-10-10T07:38:28.472Z,87.58
2023-10-10T07:39:27.977Z,87.72
2023-10-10T07:40:28.079Z,87.50
2023-10-10T07:41:28.212Z,87.22
2023-10-10T07:42:28.245Z,86.79
2023-10-10T07:43:28.330Z,86.39
2023-10-10T07:44:28.457Z,86.39
2023-10-10T07:45:28.447Z,86.44
2023-10-10T07:46:28.919Z,86.49
2023-10-10T07:47:28.915Z,86.44
2023-10-10T07:48:29.754Z,86.59
2023-10-10T07:49:28.805Z,86.69
2023-10-10T07:50:28.907Z,86.47
2023-10-10T07:51:28.954Z,86.05
2023-10-10T07:52:29.035Z,86.12
2023-10-10T07:53:29.093Z,85.79
2023-10-10T07:54:29.192Z,85.55
2023-10-10T07:55:29.245Z,85.61
2023-10-10T07:56:29.324Z,85.42
2023-10-10T07:57:29.415Z,85.58
2023-10-10T07:58:45.138Z,85.52
2023-10-10T07:59:29.613Z,85.62
2023-10-10T08:00:29.656Z,85.51
2023-10-10T08:01:29.698Z,85.26
2023-10-10T08:02:29.811Z,84.75
2023-10-10T08:03:29.930Z,84.06
2023-10-10T08:04:29.965Z,83.76
2023-10-10T08:05:30.113Z,83.70
2023-10-10T08:06:30.272Z,83.67
2023-10-10T08:07:30.142Z,83.66
2023-10-10T08:08:30.262Z,83.45
2023-10-10T08:09:30.277Z,83.63
2023-10-10T08:10:30.462Z,83.82
2023-10-10T08:11:30.491Z,83.23
2023-10-10T08:12:30.513Z,82.37
2023-10-10T08:13:30.613Z,81.81
2023-10-10T08:14:30.745Z,81.37
2023-10-10T08:15:30.726Z,81.42
2023-10-10T08:16:30.948Z,81.06
2023-10-10T08:17:31.037Z,80.66
2023-10-10T08:18:31.262Z,80.52
2023-10-10T08:19:31.762Z,79.65
2023-10-10T08:20:31.905Z,78.92
2023-10-10T08:21:31.542Z,77.97
2023-10-10T08:22:31.281Z,77.23
2023-10-10T08:23:31.481Z,76.00
2023-10-10T08:24:31.732Z,75.94
2023-10-10T08:25:35.119Z,75.59
2023-10-10T08:26:31.659Z,74.96
2023-10-10T08:27:31.684Z,74.24
2023-10-10T08:28:31.774Z,73.10
2023-10-10T08:29:31.904Z,72.52
2023-10-10T08:30:32.009Z,72.02
2023-10-10T08:31:32.083Z,71.17
2023-10-10T08:32:33.045Z,70.95
2023-10-10T08:33:53.321Z,70.71
2023-10-10T08:34:32.601Z,71.09
2023-10-10T08:35:32.461Z,70.12
2023-10-10T08:36:32.682Z,69.93
2023-10-10T08:37:32.556Z,69.38
2023-10-10T08:38:32.938Z,69.13
2023-10-10T08:39:32.757Z,69.59
2023-10-10T08:40:32.759Z,70.23
2023-10-10T08:41:34.474Z,69.90
2023-10-10T08:42:33.158Z,70.58
2023-10-10T08:43:33.119Z,70.52
2023-10-10T08:44:33.097Z,70.32
2023-10-10T08:45:33.284Z,69.99
2023-10-10T08:46:33.491Z,69.88
2023-10-10T08:47:33.430Z,69.47
2023-10-10T08:48:33.398Z,69.34
2023-10-10T08:49:33.563Z,68.75
2023-10-10T08:50:33.628Z,67.92
2023-10-10T08:51:33.708Z,67.15
2023-10-10T08:52:33.705Z,66.84
2023-10-10T08:53:34.811Z,66.37
2023-10-10T08:54:34.146Z,65.20
2023-10-10T08:55:35.224Z,64.46
2023-10-10T08:56:33.992Z,64.50
2023-10-10T08:57:34.231Z,64.91
2023-10-10T08:58:34.960Z,64.82
2023-10-10T08:59:34.459Z,63.65
2023-10-10T09:00:34.347Z,62.83
2023-10-10T09:01:34.500Z,62.46
2023-10-10T09:02:34.834Z,62.05
2023-10-10T09:03:34.643Z,62.29
2023-10-10T09:04:34.745Z,60.83
2023-10-10T09:05:34.810Z,60.43
2023-10-10T09:06:34.867Z,60.31
2023-10-10T09:07:34.925Z,59.75
2023-10-10T09:08:35.063Z,59.15
2023-10-10T09:09:35.079Z,59.09
2023-10-10T09:10:35.130Z,58.23
2023-10-10T09:11:35.642Z,57.11
2023-10-10T09:12:35.329Z,56.81
2023-10-10T09:13:35.413Z,56.32
2023-10-10T09:14:35.517Z,55.68
2023-10-10T09:15:35.560Z,54.74
2023-10-10T09:16:35.880Z,53.46
2023-10-10T09:17:37.549Z,53.33
2023-10-10T09:18:35.839Z,53.41
2023-10-10T09:19:35.878Z,53.80
2023-10-10T09:20:35.973Z,53.65
2023-10-10T09:21:36.074Z,52.73
2023-10-10T09:22:36.145Z,51.96
2023-10-10T09:23:36.338Z,52.52
2023-10-10T09:24:36.386Z,52.45
2023-10-10T09:25:36.406Z,53.33
2023-10-10T09:26:36.522Z,53.85
2023-10-10T09:27:36.875Z,54.60
2023-10-10T09:28:36.585Z,54.51
2023-10-10T09:29:36.739Z,54.33
2023-10-10T09:30:37.785Z,54.29
2023-10-10T09:31:38.778Z,53.70
2023-10-10T09:32:37.027Z,53.52
2023-10-10T09:33:37.109Z,53.44
2023-10-10T09:34:37.162Z,53.01
2023-10-10T09:35:37.826Z,53.05
2023-10-10T09:36:37.354Z,53.32
2023-10-10T09:37:37.312Z,52.51
2023-10-10T09:38:37.518Z,52.53
2023-10-10T09:39:38.148Z,51.79
2023-10-10T09:40:37.530Z,49.94
2023-10-10T09:41:37.768Z,50.46
2023-10-10T09:42:37.816Z,50.87
2023-10-10T09:43:37.839Z,51.38
2023-10-10T09:44:37.945Z,52.68
2023-10-10T09:45:38.079Z,53.37
2023-10-10T09:46:38.125Z,52.90
2023-10-10T09:47:38.253Z,52.58
2023-10-10T09:48:38.856Z,52.51
2023-10-10T09:49:38.467Z,52.31
2023-10-10T09:50:38.436Z,52.20
2023-10-10T09:51:38.540Z,51.99
2023-10-10T09:52:38.627Z,52.96
2023-10-10T09:53:38.712Z,53.51
2023-10-10T09:54:38.774Z,52.64
2023-10-10T09:55:38.832Z,52.76
2023-10-10T09:56:38.965Z,52.77
2023-10-10T09:57:38.962Z,51.47
2023-10-10T09:58:39.029Z,50.77
2023-10-10T09:59:39.095Z,49.51
2023-10-10T10:00:39.332Z,49.25
2023-10-10T10:01:39.246Z,50.73
2023-10-10T10:02:39.987Z,51.80
2023-10-10T10:03:39.455Z,52.38
2023-10-10T10:04:40.304Z,52.78
2023-10-10T10:05:40.328Z,52.42
2023-10-10T10:06:49.293Z,52.72
2023-10-10T10:07:39.749Z,53.39
2023-10-10T10:08:39.905Z,53.07
2023-10-10T10:09:39.896Z,52.65
2023-10-10T10:10:40.042Z,52.35
2023-10-10T10:11:41.816Z,51.51
2023-10-10T10:12:40.244Z,50.45
2023-10-10T10:13:40.197Z,50.11
2023-10-10T10:14:40.325Z,51.52
2023-10-10T10:15:42.013Z,52.64
2023-10-10T10:16:40.589Z,52.54
2023-10-10T10:17:40.534Z,52.47
2023-10-10T10:18:40.709Z,52.49
2023-10-10T10:19:40.669Z,51.62
2023-10-10T10:20:41.297Z,50.63
2023-10-10T10:21:40.839Z,49.84
2023-10-10T10:22:40.924Z,50.10
2023-10-10T10:23:41.128Z,50.49
2023-10-10T10:24:41.064Z,51.27
2023-10-10T10:25:41.435Z,50.76
2023-10-10T10:26:42.874Z,50.63
2023-10-10T10:27:41.912Z,51.19
2023-10-10T10:28:41.434Z,51.46
2023-10-10T10:29:42.721Z,51.27
2023-10-10T10:30:41.715Z,51.47
2023-10-10T10:31:41.732Z,52.19
2023-10-10T10:32:42.134Z,52.61
2023-10-10T10:33:42.627Z,51.97
2023-10-10T10:34:44.095Z,49.96
2023-10-10T10:35:41.918Z,49.40
2023-10-10T10:36:42.065Z,49.32
2023-10-10T10:37:42.321Z,48.50
2023-10-10T10:38:42.300Z,48.98
2023-10-10T10:39:42.412Z,48.83
2023-10-10T10:40:42.353Z,48.44
2023-10-10T10:41:43.329Z,49.44
2023-10-10T10:42:42.500Z,49.43
2023-10-10T10:43:42.716Z,48.51
2023-10-10T10:44:42.710Z,46.77
2023-10-10T10:45:42.889Z,46.06
2023-10-10T10:46:42.864Z,46.41
2023-10-10T10:47:42.974Z,46.42
2023-10-10T10:48:43.095Z,46.71
2023-10-10T10:49:43.156Z,45.96
2023-10-10T10:50:44.357Z,46.43
2023-10-10T10:51:43.245Z,45.37
2023-10-10T10:52:43.398Z,45.20
2023-10-10T10:53:43.401Z,44.72
2023-10-10T10:54:43.512Z,43.42
2023-10-10T10:55:43.588Z,43.63
2023-10-10T10:56:47.743Z,43.42
2023-10-10T10:57:50.128Z,42.85
2023-10-10T10:58:45.942Z,42.87
2023-10-10T10:59:43.890Z,42.45
2023-10-10T11:00:43.998Z,40.99
2023-10-10T11:01:44.318Z,42.87
2023-10-10T11:02:44.906Z,43.59
2023-10-10T11:03:44.266Z,44.03
2023-10-10T11:04:45.045Z,43.96
2023-10-10T11:05:44.447Z,44.35
2023-10-10T11:06:44.453Z,44.32
2023-10-10T11:07:44.638Z,44.52
2023-10-10T11:08:56.561Z,43.52
2023-10-10T11:09:44.746Z,43.83
2023-10-10T11:10:45.053Z,43.35
2023-10-10T11:11:44.914Z,43.29
2023-10-10T11:12:45.045Z,42.48
2023-10-10T11:13:45.035Z,42.00
2023-10-10T11:14:45.138Z,42.08
2023-10-10T11:15:45.324Z,40.53
2023-10-10T11:16:45.486Z,40.12
2023-10-10T11:17:45.409Z,40.33
2023-10-10T11:18:45.454Z,40.19
2023-10-10T11:19:45.515Z,39.56
2023-10-10T11:20:46.379Z,40.03
2023-10-10T11:21:45.761Z,39.99
2023-10-10T11:22:45.782Z,41.60
2023-10-10T11:23:45.907Z,41.21
2023-10-10T11:24:46.122Z,41.06
2023-10-10T11:25:45.944Z,40.21
2023-10-10T11:26:46.203Z,39.00
2023-10-10T11:27:46.363Z,38.74
2023-10-10T11:28:46.248Z,38.58
2023-10-10T11:29:46.610Z,38.55
2023-10-10T11:30:46.433Z,38.78
2023-10-10T11:31:46.483Z,39.16
2023-10-10T11:32:46.584Z,39.36
2023-10-10T11:33:46.569Z,39.37
2023-10-10T11:34:46.664Z,39.88
2023-10-10T11:35:46.807Z,40.16
2023-10-10T11:36:46.876Z,39.64
2023-10-10T11:37:46.989Z,38.33
2023-10-10T11:38:47.079Z,38.56
2023-10-10T11:39:47.534Z,40.05
2023-10-10T11:40:47.156Z,39.48
2023-10-10T11:41:47.197Z,38.78
2023-10-10T11:42:47.284Z,38.39
2023-10-10T11:43:47.363Z,38.43
2023-10-10T11:44:47.509Z,39.03
2023-10-10T11:45:47.604Z,40.01
2023-10-10T11:46:47.698Z,40.51
2023-10-10T11:47:47.796Z,41.10
2023-10-10T11:48:47.836Z,40.49
2023-10-10T11:49:48.810Z,40.45
2023-10-10T11:50:47.984Z,39.47
2023-10-10T11:51:48.598Z,40.22
2023-10-10T11:52:48.110Z,39.57
2023-10-10T11:53:48.158Z,40.91
2023-10-10T11:54:48.226Z,40.93
2023-10-10T11:55:48.307Z,41.11
2023-10-10T11:56:48.410Z,40.30
2023-10-10T11:57:48.477Z,39.22
2023-10-10T11:58:48.562Z,39.97
2023-10-10T11:59:49.436Z,40.41
2023-10-10T12:00:48.758Z,40.67
2023-10-10T12:01:48.832Z,40.08
2023-10-10T12:02:48.945Z,39.78
2023-10-10T12:03:48.972Z,40.50
2023-10-10T12:04:49.057Z,40.30
2023-10-10T12:05:49.157Z,40.18
2023-10-10T12:06:49.179Z,40.58
2023-10-10T12:07:49.532Z,40.06
2023-10-10T12:08:49.429Z,40.12
2023-10-10T12:09:49.433Z,41.06
2023-10-10T12:10:49.715Z,40.90
2023-10-10T12:11:49.565Z,39.86
2023-10-10T12:12:49.620Z,40.81
2023-10-10T12:13:50.513Z,41.89
2023-10-10T12:14:50.338Z,42.07
2023-10-10T12:15:49.927Z,41.21
2023-10-10T12:16:49.924Z,41.85
2023-10-10T12:17:50.115Z,42.13
2023-10-10T12:18:50.123Z,42.14
2023-10-10T12:19:50.128Z,42.08
2023-10-10T12:20:50.510Z,42.97
2023-10-10T12:21:50.385Z,43.72
2023-10-10T12:22:50.349Z,43.63
2023-10-10T12:23:50.658Z,43.78
2023-10-10T12:24:50.485Z,43.03
2023-10-10T12:25:50.584Z,42.79
2023-10-10T12:26:50.686Z,43.55
2023-10-10T12:27:50.691Z,43.73
2023-10-10T12:28:50.796Z,43.49
2023-10-10T12:29:50.881Z,43.36
2023-10-10T12:30:51.012Z,43.00
2023-10-10T12:31:51.094Z,43.09
2023-10-10T12:32:51.228Z,43.11
2023-10-10T12:33:51.404Z,43.13
2023-10-10T12:34:51.336Z,42.28
2023-10-10T12:35:51.441Z,41.28
2023-10-10T12:36:51.467Z,42.76
2023-10-10T12:37:51.552Z,42.95
2023-10-10T12:38:52.562Z,42.09
2023-10-10T12:39:51.784Z,41.25
2023-10-10T12:40:51.825Z,39.93
2023-10-10T12:41:52.523Z,40.81
2023-10-10T12:42:51.983Z,40.51
2023-10-10T12:43:52.111Z,40.34
2023-10-10T12:44:52.111Z,41.24
2023-10-10T12:45:52.977Z,40.98
2023-10-10T12:46:52.226Z,41.74
2023-10-10T12:47:52.397Z,42.50
2023-10-10T12:48:53.297Z,42.13
2023-10-10T12:49:52.484Z,41.88
2023-10-10T12:50:52.557Z,41.52
2023-10-10T12:51:53.335Z,41.30
2023-10-10T12:52:52.722Z,40.96
2023-10-10T12:53:53.607Z,39.78